Time;durP1;ratioP1;P1;durP2;ratioP2;P2;SDS_P1;SDS_P2;PMS_P1;PMS_P2;Temp;Humidity;BMP_temperature;BMP_pressure;BME280_temperature;BME280_humidity;BME280_pressure;Samples;Min_cycle;Max_cycle;Signal;HPM_P1;HPM_P2
2022/05/06 00:01:30;;;;;;;14.25;9.02;;;;;;;11.88;100.00;99286.19;5036861;28;20054;-65
2022/05/06 00:03:56;;;;;;;14.45;9.10;;;;;;;11.85;100.00;99270.28;5008306;28;20500;-65
2022/05/06 00:06:21;;;;;;;16.17;10.18;;;;;;;11.83;100.00;99286.75;5009908;28;20025;-65
2022/05/06 00:08:46;;;;;;;18.63;9.32;;;;;;;11.82;100.00;99276.97;5008892;28;20125;-65
2022/05/06 00:11:12;;;;;;;15.40;9.20;;;;;;;11.91;100.00;99293.09;5013106;28;20037;-65
2022/05/06 00:13:37;;;;;;;17.02;9.25;;;;;;;11.85;100.00;99281.97;5003672;28;20041;-65
2022/05/06 00:16:06;;;;;;;15.30;8.68;;;;;;;11.90;100.00;99278.69;5014209;28;20090;-65
2022/05/06 00:18:31;;;;;;;17.25;10.10;;;;;;;11.85;100.00;99278.44;5014016;28;20033;-65
2022/05/06 00:20:57;;;;;;;13.80;9.05;;;;;;;11.83;100.00;99272.38;5010992;28;20512;-65
2022/05/06 00:23:23;;;;;;;13.50;9.02;;;;;;;11.89;100.00;99287.84;5015291;28;20021;-65
2022/05/06 00:25:49;;;;;;;16.55;9.70;;;;;;;11.86;100.00;99288.25;5011009;28;20498;-65
2022/05/06 00:28:14;;;;;;;13.63;9.18;;;;;;;11.83;100.00;99283.22;5015252;28;20028;-65
2022/05/06 00:30:41;;;;;;;12.70;8.57;;;;;;;11.84;100.00;99284.88;5013569;28;20030;-65
2022/05/06 00:33:09;;;;;;;14.77;8.52;;;;;;;11.82;100.00;99281.53;5013145;28;20032;-64
2022/05/06 00:35:37;;;;;;;16.58;8.48;;;;;;;11.78;100.00;99281.09;5022817;28;20492;-65
2022/05/06 00:38:03;;;;;;;14.93;8.95;;;;;;;11.61;100.00;99248.06;5012642;28;20088;-65
2022/05/06 00:40:29;;;;;;;13.68;8.80;;;;;;;11.74;100.00;99282.53;5017856;28;20025;-65
2022/05/06 00:42:56;;;;;;;15.30;8.68;;;;;;;11.71;100.00;99280.22;5036625;28;20029;-65
2022/05/06 00:45:22;;;;;;;12.52;9.00;;;;;;;11.75;100.00;99280.66;5010117;28;20029;-65
2022/05/06 00:47:47;;;;;;;15.68;8.82;;;;;;;11.74;100.00;99279.84;5020249;28;20038;-65
2022/05/06 00:50:13;;;;;;;17.70;9.50;;;;;;;11.75;100.00;99277.94;5013844;28;20116;-64
2022/05/06 00:52:39;;;;;;;11.85;8.18;;;;;;;11.80;100.00;99272.78;5013193;28;20034;-65
2022/05/06 00:55:05;;;;;;;18.13;8.30;;;;;;;11.72;100.00;99276.47;5019997;28;20025;-65
2022/05/06 00:57:31;;;;;;;14.48;7.97;;;;;;;11.72;100.00;99270.22;5009740;28;20112;-65
2022/05/06 01:02:40;;;;;;;16.77;8.68;;;;;;;11.69;100.00;99266.03;5023873;28;20449;-65
2022/05/06 01:05:09;;;;;;;13.07;8.95;;;;;;;11.61;100.00;99255.34;5012085;28;20113;-66
2022/05/06 01:07:35;;;;;;;15.30;9.10;;;;;;;11.65;100.00;99270.16;5003599;28;20076;-65
2022/05/06 01:10:01;;;;;;;15.77;9.18;;;;;;;11.45;100.00;99248.38;5011120;28;20299;-65
2022/05/06 01:12:26;;;;;;;15.77;8.90;;;;;;;11.59;100.00;99277.22;5013544;28;20026;-65
2022/05/06 01:14:51;;;;;;;13.63;8.77;;;;;;;11.59;100.00;99270.97;5011928;28;20419;-65
2022/05/06 01:17:17;;;;;;;19.20;9.18;;;;;;;11.59;100.00;99277.22;5007175;28;20087;-66
2022/05/06 01:19:42;;;;;;;13.27;8.55;;;;;;;11.49;100.00;99256.94;5017085;28;20032;-65
2022/05/06 01:22:08;;;;;;;18.30;9.23;;;;;;;11.59;100.00;99274.50;5024528;28;20036;-65
2022/05/06 01:24:33;;;;;;;13.80;8.50;;;;;;;11.61;100.00;99275.16;5012852;28;20057;-65
2022/05/06 01:27:06;;;;;;;18.77;9.18;;;;;;;11.61;100.00;99283.28;5006884;28;20022;-66
2022/05/06 01:29:32;;;;;;;16.65;9.80;;;;;;;11.41;100.00;99242.50;5028603;28;20044;-65
2022/05/06 01:31:59;;;;;;;17.20;9.25;;;;;;;11.63;100.00;99278.50;5012904;28;20685;-66
2022/05/06 01:34:28;;;;;;;17.20;9.60;;;;;;;11.64;100.00;99287.47;5011271;28;20025;-66
2022/05/06 01:36:55;;;;;;;14.93;9.50;;;;;;;11.61;100.00;99279.75;5013039;28;20026;-65
2022/05/06 01:39:32;;;;;;;17.52;10.00;;;;;;;11.58;100.00;99280.97;5010068;28;20025;-65
2022/05/06 01:42:00;;;;;;;17.27;9.85;;;;;;;11.58;100.00;99278.28;5017924;28;20034;-66
2022/05/06 01:44:34;;;;;;;20.27;10.30;;;;;;;11.56;100.00;99288.47;5016885;28;20033;-65
2022/05/06 01:47:05;;;;;;;15.98;10.35;;;;;;;11.55;100.00;99281.38;5010101;28;20116;-65
2022/05/06 01:49:32;;;;;;;16.13;9.48;;;;;;;11.62;100.00;99287.66;5009372;28;20018;-66
2022/05/06 01:51:58;;;;;;;13.93;9.45;;;;;;;11.62;100.00;99287.66;5019836;28;20108;-65
2022/05/06 01:54:24;;;;;;;17.67;9.48;;;;;;;11.64;100.00;99284.78;5016362;28;20104;-66
2022/05/06 01:56:49;;;;;;;15.80;9.40;;;;;;;11.62;100.00;99276.81;5023582;28;20084;-65
2022/05/06 01:59:14;;;;;;;16.85;9.25;;;;;;;11.65;100.00;99280.19;5010946;28;20038;-65
2022/05/06 02:01:40;;;;;;;16.63;9.57;;;;;;;11.57;100.00;99262.19;5015499;28;20461;-66
2022/05/06 02:06:49;;;;;;;12.88;8.25;;;;;;;11.57;100.00;99273.88;5021786;28;20099;-65
2022/05/06 02:09:16;;;;;;;14.23;8.60;;;;;;;11.48;100.00;99258.81;5018203;28;20065;-65
2022/05/06 02:11:42;;;;;;;15.38;8.98;;;;;;;11.59;100.00;99282.66;5018077;28;20044;-65
2022/05/06 02:14:08;;;;;;;15.02;8.30;;;;;;;11.34;100.00;99251.63;5012177;28;20562;-65
2022/05/06 02:16:33;;;;;;;15.43;7.88;;;;;;;11.57;100.00;99278.47;5018742;28;20029;-65
2022/05/06 02:18:59;;;;;;;14.52;8.27;;;;;;;11.53;100.00;99275.31;5014856;28;20026;-65
2022/05/06 02:21:24;;;;;;;17.05;7.97;;;;;;;11.54;100.00;99274.28;5012903;28;20021;-65
2022/05/06 02:23:49;;;;;;;13.13;8.07;;;;;;;11.60;100.00;99280.75;5006604;28;20034;-65
2022/05/06 02:26:15;;;;;;;12.23;7.93;;;;;;;11.57;100.00;99279.28;5020998;28;20029;-65
2022/05/06 02:28:40;;;;;;;12.05;7.63;;;;;;;11.52;100.00;99273.63;5010246;28;20030;-66
2022/05/06 02:33:49;;;;;;;12.52;7.72;;;;;;;11.52;100.00;99275.50;5015737;28;20037;-65
2022/05/06 02:36:15;;;;;;;13.32;7.97;;;;;;;11.54;100.00;99276.97;5015584;28;20270;-65
2022/05/06 02:38:40;;;;;;;12.88;6.50;;;;;;;11.52;100.00;99270.91;5011158;28;20029;-65
2022/05/06 02:41:06;;;;;;;11.60;7.45;;;;;;;11.64;100.00;99273.94;5024938;28;20026;-64
2022/05/06 02:43:31;;;;;;;9.43;6.22;;;;;;;11.61;100.00;99286.00;5009402;28;20075;-65
2022/05/06 02:45:56;;;;;;;15.05;7.05;;;;;;;11.62;100.00;99284.13;5021004;28;20025;-65
2022/05/06 02:48:22;;;;;;;10.88;6.30;;;;;;;11.67;100.00;99278.13;5010314;28;20476;-65
2022/05/06 02:50:47;;;;;;;9.90;6.47;;;;;;;11.55;100.00;99259.69;5020563;28;20030;-65
2022/05/06 02:53:12;;;;;;;9.60;6.22;;;;;;;11.67;100.00;99283.53;5008979;28;20025;-65
2022/05/06 02:55:38;;;;;;;11.88;6.60;;;;;;;11.63;100.00;99269.53;5018279;28;20419;-65
2022/05/06 02:58:04;;;;;;;11.88;6.40;;;;;;;11.63;100.00;99272.22;5013523;28;20104;-65
2022/05/06 03:00:30;;;;;;;15.15;6.70;;;;;;;11.70;100.00;99294.81;5021359;28;20479;-65
2022/05/06 03:02:56;;;;;;;13.52;7.07;;;;;;;11.67;100.00;99288.97;5011502;28;20056;-65
2022/05/06 03:05:22;;;;;;;11.98;6.70;;;;;;;11.63;100.00;99289.34;5019874;28;20029;-72
2022/05/06 03:07:48;;;;;;;13.90;6.85;;;;;;;11.51;100.00;99274.66;4998034;28;20087;-70
2022/05/06 03:10:13;;;;;;;16.38;7.38;;;;;;;11.57;100.00;99287.41;5012697;28;20103;-70
2022/05/06 03:12:42;;;;;;;11.85;7.32;;;;;;;11.56;100.00;99293.88;5022746;28;20026;-69
2022/05/06 03:15:08;;;;;;;13.77;7.50;;;;;;;11.52;100.00;99287.16;5026172;28;20025;-69
2022/05/06 03:17:34;;;;;;;12.45;7.93;;;;;;;11.37;100.00;99273.75;5017363;28;20053;-70
2022/05/06 03:20:00;;;;;;;15.02;7.63;;;;;;;11.44;100.00;99286.50;5023079;28;20391;-69
2022/05/06 03:22:25;;;;;;;13.95;8.57;;;;;;;11.41;100.00;99275.00;5025725;28;20048;-69
2022/05/06 03:24:51;;;;;;;11.48;7.72;;;;;;;11.22;100.00;99261.34;5025299;28;20026;-70
2022/05/06 03:30:01;;;;;;;16.75;8.90;;;;;;;11.31;100.00;99279.09;5022842;28;20045;-69
2022/05/06 03:32:31;;;;;;;12.93;9.02;;;;;;;11.15;100.00;99264.81;5018667;28;20034;-69
2022/05/06 03:34:57;;;;;;;15.23;8.80;;;;;;;11.17;100.00;99278.16;5012359;28;20115;-70
2022/05/06 03:37:23;;;;;;;16.08;8.75;;;;;;;11.21;100.00;99294.84;5010561;28;20038;-69
2022/05/06 03:39:48;;;;;;;13.13;8.70;;;;;;;11.09;100.00;99265.59;5027884;28;20026;-69
2022/05/06 03:42:14;;;;;;;15.65;8.57;;;;;;;10.96;100.00;99252.78;5014178;28;20021;-69
2022/05/06 03:44:40;;;;;;;13.93;8.82;;;;;;;11.16;100.00;99285.47;5013396;28;20492;-69
2022/05/06 03:47:05;;;;;;;16.77;8.55;;;;;;;11.17;100.00;99291.69;5012630;28;20018;-70
2022/05/06 03:49:31;;;;;;;16.27;9.07;;;;;;;11.12;100.00;99277.91;5033995;28;20508;-69
2022/05/06 03:51:56;;;;;;;15.23;9.13;;;;;;;11.18;100.00;99280.66;5007163;28;20026;-71
2022/05/06 03:54:21;;;;;;;13.05;8.48;;;;;;;11.13;100.00;99276.88;5008153;28;20128;-71
2022/05/06 03:56:47;;;;;;;13.18;9.32;;;;;;;11.13;100.00;99285.84;5020179;28;20033;-70
2022/05/06 03:59:12;;;;;;;20.17;9.02;;;;;;;11.12;100.00;99286.88;5022963;28;20018;-68
2022/05/06 04:01:38;;;;;;;17.90;9.65;;;;;;;11.02;100.00;99274.69;5009545;28;20430;-71
2022/05/06 04:04:04;;;;;;;12.68;8.68;;;;;;;11.01;100.00;99289.28;5009484;28;20033;-66
2022/05/06 04:06:29;;;;;;;14.25;8.30;;;;;;;11.00;100.00;99290.28;5024289;28;20617;-66
2022/05/06 04:08:55;;;;;;;12.48;8.48;;;;;;;10.96;100.00;99287.13;5013348;28;20117;-65
2022/05/06 04:11:20;;;;;;;14.48;9.13;;;;;;;10.60;100.00;99246.59;5010732;28;20030;-66
2022/05/06 04:13:46;;;;;;;13.73;9.57;;;;;;;10.89;100.00;99302.47;5008355;28;20034;-71
2022/05/06 04:16:12;;;;;;;14.52;8.65;;;;;;;10.88;100.00;99298.94;5016476;28;20067;-72
2022/05/06 04:18:38;;;;;;;14.88;9.50;;;;;;;10.87;100.00;99309.94;5010106;28;20037;-71
2022/05/06 04:23:47;;;;;;;16.27;9.32;;;;;;;10.85;100.00;99315.56;5021615;28;20040;-65
2022/05/06 04:26:13;;;;;;;14.90;9.73;;;;;;;10.86;100.00;99313.69;5028213;28;20030;-66
2022/05/06 04:28:39;;;;;;;19.45;8.65;;;;;;;10.85;100.00;99310.16;5025078;28;20028;-66
2022/05/06 04:31:05;;;;;;;17.52;9.35;;;;;;;10.87;100.00;99312.66;5031136;28;20029;-67
2022/05/06 04:33:31;;;;;;;15.07;8.57;;;;;;;10.90;100.00;99317.72;5032571;28;20548;-69
2022/05/06 04:35:57;;;;;;;13.38;8.90;;;;;;;10.85;100.00;99317.44;5010322;28;20041;-68
2022/05/06 04:38:23;;;;;;;18.75;9.20;;;;;;;10.79;100.00;99312.78;5019778;28;20022;-70
2022/05/06 04:40:50;;;;;;;12.30;8.20;;;;;;;10.74;100.00;99306.09;5018958;28;20033;-70
2022/05/06 04:43:18;;;;;;;12.98;8.25;;;;;;;10.91;100.00;99322.91;5016319;28;20053;-69
2022/05/06 04:45:44;;;;;;;13.87;8.83;;;;;;;10.87;100.00;99326.19;5012741;28;20117;-70
2022/05/06 04:48:11;;;;;;;13.23;7.90;;;;;;;10.96;100.00;99334.00;5012709;28;20700;-70
2022/05/06 04:50:37;;;;;;;17.73;8.52;;;;;;;10.94;100.00;99340.63;5010256;28;20112;-70
2022/05/06 04:53:07;;;;;;;15.02;9.10;;;;;;;10.96;100.00;99344.81;5012703;28;20029;-66
2022/05/06 04:55:43;;;;;;;13.45;8.70;;;;;;;10.97;100.00;99338.38;5018782;28;20438;-66
2022/05/06 04:58:09;;;;;;;15.05;8.98;;;;;;;10.97;100.00;99337.53;5010990;28;20026;-63
2022/05/06 05:00:35;;;;;;;19.00;8.63;;;;;;;10.79;100.00;99316.31;5006698;28;20453;-64
2022/05/06 05:03:02;;;;;;;13.10;8.27;;;;;;;10.88;100.00;99314.34;5013905;28;20037;-65
2022/05/06 05:05:27;;;;;;;17.77;9.30;;;;;;;11.04;100.00;99353.88;5009708;28;20060;-66
2022/05/06 05:07:53;;;;;;;10.85;7.93;;;;;;;11.11;100.00;99350.19;5010649;28;20041;-66
2022/05/06 05:10:22;;;;;;;13.13;7.95;;;;;;;11.07;100.00;99342.63;5010293;28;20014;-68
2022/05/06 05:12:48;;;;;;;13.07;7.38;;;;;;;11.10;100.00;99351.22;5015724;28;20073;-67
2022/05/06 05:15:15;;;;;;;15.70;8.13;;;;;;;11.10;100.00;99356.63;5018023;28;20060;-69
2022/05/06 05:17:41;;;;;;;10.40;7.65;;;;;;;11.02;100.00;99339.66;5034951;28;20071;-69
2022/05/06 05:20:07;;;;;;;12.45;7.50;;;;;;;11.00;100.00;99341.72;5011116;28;20027;-69
2022/05/06 05:22:35;;;;;;;14.13;7.93;;;;;;;11.12;100.00;99351.84;5008175;28;20030;-71
2022/05/06 05:25:01;;;;;;;13.15;8.10;;;;;;;11.13;100.00;99358.97;5018999;28;20052;-67
2022/05/06 05:27:26;;;;;;;10.82;7.63;;;;;;;11.11;100.00;99358.31;5024870;28;20057;-68
2022/05/06 05:29:52;;;;;;;17.27;7.30;;;;;;;11.10;100.00;99361.22;5027379;28;20034;-68
2022/05/06 05:32:18;;;;;;;10.90;7.72;;;;;;;11.12;100.00;99368.09;5016006;28;20026;-66
2022/05/06 05:34:43;;;;;;;16.92;8.93;;;;;;;10.96;100.00;99330.47;5027610;28;20033;-74
2022/05/06 05:37:09;;;;;;;11.85;7.75;;;;;;;11.08;100.00;99352.44;5016693;28;20021;-69
2022/05/06 05:39:36;;;;;;;11.90;7.55;;;;;;;11.19;100.00;99354.66;5011060;28;20108;-68
2022/05/06 05:42:03;;;;;;;13.35;7.18;;;;;;;11.16;100.00;99364.00;5011537;28;20033;-69
2022/05/06 05:49:57;;;;;;;10.07;7.35;;;;;;;11.16;100.00;99368.53;5015978;28;20028;-71
2022/05/06 05:52:22;;;;;;;15.27;7.53;;;;;;;11.19;100.00;99379.03;5023546;28;20018;-69
2022/05/06 05:54:47;;;;;;;13.30;6.90;;;;;;;11.16;100.00;99372.13;5006320;28;20030;-70
2022/05/06 05:57:12;;;;;;;14.90;7.35;;;;;;;11.15;100.00;99362.31;5010780;28;20680;-70
2022/05/06 05:59:39;;;;;;;10.82;6.78;;;;;;;11.24;100.00;99379.28;5008775;28;20052;-64
2022/05/06 06:02:05;;;;;;;11.07;6.50;;;;;;;11.22;100.00;99361.53;5020391;28;20439;-68
2022/05/06 06:04:30;;;;;;;10.98;7.00;;;;;;;11.25;100.00;99375.53;5008357;28;20022;-62
2022/05/06 06:06:56;;;;;;;9.98;6.13;;;;;;;11.28;100.00;99382.44;5027234;28;20029;-65
2022/05/06 06:09:22;;;;;;;11.10;6.15;;;;;;;11.16;100.00;99366.69;5016812;28;20475;-64
2022/05/06 06:11:49;;;;;;;10.45;6.63;;;;;;;11.26;100.00;99376.34;5009220;28;20037;-66
2022/05/06 06:14:14;;;;;;;11.52;5.82;;;;;;;11.21;100.00;99368.81;5007158;28;20060;-64
2022/05/06 06:16:40;;;;;;;11.40;6.53;;;;;;;11.36;100.00;99369.56;5006842;28;20026;-63
2022/05/06 06:19:05;;;;;;;11.38;6.57;;;;;;;11.35;100.00;99378.75;5027431;28;20030;-63
2022/05/06 06:21:30;;;;;;;8.80;6.00;;;;;;;11.34;100.00;99368.09;5016043;28;20364;-66
2022/05/06 06:23:55;;;;;;;10.32;6.15;;;;;;;11.39;100.00;99362.94;5005213;28;20116;-68
2022/05/06 06:26:21;;;;;;;10.25;6.47;;;;;;;11.41;100.00;99361.72;5011421;28;20018;-64
2022/05/06 06:28:46;;;;;;;11.25;6.68;;;;;;;11.26;100.00;99339.28;5008562;28;20032;-63
2022/05/06 06:31:12;;;;;;;9.95;6.47;;;;;;;11.18;100.00;99328.56;5011661;28;20491;-64
2022/05/06 06:33:38;;;;;;;13.18;6.55;;;;;;;11.27;100.00;99349.09;5010766;28;20476;-68
2022/05/06 06:36:05;;;;;;;9.27;5.95;;;;;;;11.46;100.00;99373.84;5012797;28;20021;-69
2022/05/06 06:38:31;;;;;;;12.70;6.28;;;;;;;11.39;100.00;99368.34;5007132;28;20080;-70
2022/05/06 06:40:56;;;;;;;14.20;6.32;;;;;;;11.40;100.00;99368.16;5021414;28;20042;-71
2022/05/06 06:43:21;;;;;;;13.07;6.30;;;;;;;11.50;100.00;99364.28;5006564;28;20029;-69
2022/05/06 06:45:47;;;;;;;10.43;6.18;;;;;;;11.52;100.00;99375.75;5011810;28;20030;-63
2022/05/06 06:48:12;;;;;;;8.57;5.85;;;;;;;11.58;100.00;99374.97;5012686;28;20041;-64
2022/05/06 06:50:39;;;;;;;9.77;6.35;;;;;;;11.47;100.00;99370.09;5026835;28;20086;-64
2022/05/06 06:53:05;;;;;;;10.23;6.53;;;;;;;11.63;100.00;99380.66;5014421;28;20026;-64
2022/05/06 06:55:30;;;;;;;10.45;6.43;;;;;;;11.63;100.00;99389.63;5017792;28;20144;-64
2022/05/06 06:57:55;;;;;;;9.65;6.20;;;;;;;11.83;100.00;99375.38;5008957;28;20036;-64
2022/05/06 07:00:21;;;;;;;10.88;5.95;;;;;;;11.93;100.00;99375.06;5006284;28;20069;-65
2022/05/06 07:02:46;;;;;;;10.23;5.90;;;;;;;11.98;100.00;99351.75;5009523;28;20113;-64
2022/05/06 07:05:11;;;;;;;12.65;5.90;;;;;;;12.03;99.32;99365.56;5006435;28;20060;-73
2022/05/06 07:13:04;;;;;;;8.57;5.40;;;;;;;12.49;93.39;99392.09;5011531;28;20115;-68
2022/05/06 07:15:31;;;;;;;10.18;5.85;;;;;;;12.65;94.29;99384.66;5010119;28;20064;-68
2022/05/06 07:17:57;;;;;;;12.70;5.82;;;;;;;12.49;94.04;99375.81;5022199;28;20029;-72
2022/05/06 07:20:23;;;;;;;10.55;5.95;;;;;;;12.54;94.48;99371.66;5010892;28;20029;-72
2022/05/06 07:22:48;;;;;;;11.20;6.10;;;;;;;12.58;93.76;99368.34;5024925;28;20502;-75
2022/05/06 07:25:13;;;;;;;8.27;5.50;;;;;;;12.93;92.22;99398.94;5009063;28;20498;-71
2022/05/06 07:27:39;;;;;;;10.60;6.25;;;;;;;12.88;92.23;99374.28;5006802;28;20399;-73
2022/05/06 07:30:06;;;;;;;9.55;5.28;;;;;;;13.07;92.10;99394.41;5016004;28;20026;-71
2022/05/06 07:32:32;;;;;;;8.52;5.38;;;;;;;13.26;91.07;99397.38;5007979;28;20032;-71
2022/05/06 07:34:57;;;;;;;12.10;5.20;;;;;;;13.45;89.78;99398.50;5012414;28;20049;-66
2022/05/06 07:37:23;;;;;;;13.85;5.97;;;;;;;13.64;88.56;99394.09;5013075;28;20036;-72
2022/05/06 07:39:48;;;;;;;8.95;5.47;;;;;;;13.99;86.83;99387.41;5015834;28;20033;-69
2022/05/06 07:42:14;;;;;;;7.22;4.82;;;;;;;14.33;84.99;99380.00;5016174;28;20084;-69
2022/05/06 07:44:40;;;;;;;9.55;5.00;;;;;;;14.87;81.93;99389.66;5006434;28;20021;-72
2022/05/06 07:47:05;;;;;;;8.48;4.55;;;;;;;15.00;79.92;99366.97;5010327;28;20026;-66
2022/05/06 07:49:31;;;;;;;7.85;4.90;;;;;;;15.26;78.92;99385.06;5009708;28;20022;-73
2022/05/06 07:51:56;;;;;;;8.20;4.85;;;;;;;15.35;74.07;99339.25;5011668;28;20029;-73
2022/05/06 07:54:21;;;;;;;6.85;5.00;;;;;;;15.25;74.97;99379.84;5013589;28;20523;-76
2022/05/06 07:56:47;;;;;;;8.18;5.93;;;;;;;15.44;72.54;99378.84;5031109;28;20022;-75
2022/05/06 07:59:12;;;;;;;8.02;5.43;;;;;;;15.60;75.33;99387.56;5024044;28;20022;-72
2022/05/06 08:04:36;;;;;;;10.02;5.60;;;;;;;15.56;75.08;99382.53;5010944;28;20029;-74
2022/05/06 08:07:02;;;;;;;;;;;;;;;15.51;76.14;99409.66;5010691;28;20430;-72
2022/05/06 08:09:28;;;;;;;9.55;6.15;;;;;;;15.52;75.49;99373.13;5016777;28;19909;-77
2022/05/06 08:11:53;;;;;;;8.55;5.88;;;;;;;15.41;75.02;99406.56;5008684;28;20092;-74
2022/05/06 08:14:19;;;;;;;12.63;5.50;;;;;;;15.47;75.25;99394.75;5015449;28;20079;-75
2022/05/06 08:16:46;;;;;;;12.45;5.93;;;;;;;15.77;74.86;99400.47;5030660;28;20057;-74
2022/05/06 08:19:12;;;;;;;10.48;5.65;;;;;;;16.05;74.96;99409.22;5022929;28;20109;-74
2022/05/06 08:21:38;;;;;;;8.52;5.32;;;;;;;16.13;71.77;99374.28;5004489;28;20160;-72
2022/05/06 08:24:04;;;;;;;11.05;5.70;;;;;;;16.78;72.55;99403.84;5029762;28;20032;-75
2022/05/06 08:26:29;;;;;;;8.88;5.25;;;;;;;17.60;67.50;99402.50;5041665;28;20124;-70
2022/05/06 08:28:55;;;;;;;8.90;5.60;;;;;;;18.46;62.30;99394.72;5025611;28;20021;-69
2022/05/06 08:31:20;;;;;;;9.23;4.78;;;;;;;20.35;56.00;99412.78;5011414;28;20032;-68
2022/05/06 08:33:46;;;;;;;9.07;4.30;;;;;;;21.11;52.02;99395.66;5016250;28;20038;-72
2022/05/06 08:36:11;;;;;;;7.53;4.07;;;;;;;21.88;51.78;99402.78;5009125;28;20022;-69
2022/05/06 08:38:36;;;;;;;4.95;3.00;;;;;;;21.85;49.58;99395.03;5020857;28;20049;-69
2022/05/06 08:41:02;;;;;;;9.90;3.67;;;;;;;22.45;47.00;99394.91;5031820;28;20486;-70
2022/05/06 08:43:28;;;;;;;5.80;3.10;;;;;;;23.15;45.05;99390.84;5015879;28;20029;-71
2022/05/06 08:51:34;;;;;;;5.93;3.10;;;;;;;21.60;47.96;99405.81;5014335;28;20041;-68
2022/05/06 08:53:59;;;;;;;5.13;2.58;;;;;;;23.03;46.52;99397.69;5014042;28;20034;-68
2022/05/06 08:56:25;;;;;;;5.72;2.25;;;;;;;24.46;42.38;99390.38;5007815;28;20037;-64
2022/05/06 08:58:50;;;;;;;4.10;2.00;;;;;;;23.93;43.10;99394.56;5017810;28;20022;-73
2022/05/06 09:01:20;;;;;;;3.92;2.05;;;;;;;23.32;44.74;99376.81;5025374;28;20029;-73
2022/05/06 09:03:48;;;;;;;4.70;2.00;;;;;;;23.02;45.14;99404.31;5012118;28;20022;-65
2022/05/06 09:06:25;;;;;;;7.00;2.88;;;;;;;23.19;43.56;99383.69;5009041;28;20022;-65
2022/05/06 09:08:52;;;;;;;4.28;2.40;;;;;;;22.68;44.41;99393.66;5003682;28;20026;-69
2022/05/06 09:14:07;;;;;;;8.30;2.28;;;;;;;23.15;45.12;99390.00;5009470;28;20040;-67
2022/05/06 09:16:42;;;;;;;3.65;2.45;;;;;;;22.64;45.36;99398.06;5020164;28;20095;-68
2022/05/06 09:19:21;;;;;;;6.45;2.95;;;;;;;22.43;45.25;99391.63;5009858;28;20032;-69
2022/05/06 09:22:17;;;;;;;8.18;2.70;;;;;;;23.19;43.27;99399.44;5014017;28;20022;-65
2022/05/06 09:24:47;;;;;;;3.38;2.40;;;;;;;23.55;40.94;99393.94;5010118;28;20068;-65
2022/05/06 09:27:14;;;;;;;5.85;2.33;;;;;;;24.47;41.96;99391.19;5011945;28;20087;-65
2022/05/06 09:29:45;;;;;;;2.80;2.30;;;;;;;24.53;41.45;99386.50;5011561;28;20018;-65
2022/05/06 09:32:17;;;;;;;4.63;2.10;;;;;;;24.24;40.30;99396.19;5024122;28;20402;-65
2022/05/06 09:34:44;;;;;;;4.13;2.17;;;;;;;24.27;41.79;99390.09;5012116;28;20555;-61
2022/05/06 09:37:09;;;;;;;4.45;2.28;;;;;;;23.94;42.43;99394.28;5009989;28;20108;-63
2022/05/06 09:39:38;;;;;;;4.72;2.20;;;;;;;23.93;40.58;99387.09;5011365;28;20106;-62
2022/05/06 09:42:05;;;;;;;5.82;2.35;;;;;;;24.18;41.95;99389.03;5009668;28;20080;-65
2022/05/06 09:44:33;;;;;;;4.43;1.98;;;;;;;24.25;40.94;99388.72;5016312;28;20481;-65
2022/05/06 09:47:09;;;;;;;4.03;2.08;;;;;;;24.61;38.97;99377.63;5019330;28;20021;-65
2022/05/06 09:49:41;;;;;;;5.00;1.95;;;;;;;26.08;38.46;99385.34;5011279;28;20535;-63
2022/05/06 09:52:13;;;;;;;4.55;2.00;;;;;;;26.38;37.45;99389.75;5009471;28;20472;-63
2022/05/06 09:54:41;;;;;;;7.38;1.83;;;;;;;26.77;36.41;99374.91;5013432;28;20025;-63
2022/05/06 09:57:07;;;;;;;4.93;2.17;;;;;;;25.75;38.24;99382.25;5012572;28;20543;-63
2022/05/06 09:59:34;;;;;;;4.35;2.35;;;;;;;23.81;38.15;99384.59;5010557;28;20038;-63
2022/05/06 10:02:00;;;;;;;6.05;2.45;;;;;;;24.06;40.19;99366.38;4995921;28;20033;-63
2022/05/06 10:04:25;;;;;;;7.28;1.90;;;;;;;24.73;39.12;99380.06;5018478;28;20032;-63
2022/05/06 10:06:52;;;;;;;3.33;1.60;;;;;;;25.42;38.59;99373.63;5017100;28;20079;-61
2022/05/06 10:09:23;;;;;;;7.95;2.10;;;;;;;25.24;38.25;99371.53;5017126;28;20104;-61
2022/05/06 10:11:51;;;;;;;5.28;2.22;;;;;;;24.55;39.84;99357.44;5009679;28;20570;-61
2022/05/06 10:14:17;;;;;;;4.00;2.10;;;;;;;25.13;39.15;99382.63;5011865;28;20026;-61
2022/05/06 10:16:43;;;;;;;4.25;2.17;;;;;;;25.24;38.29;99385.38;5009082;28;20033;-61
2022/05/06 10:19:44;;;;;;;4.38;2.00;;;;;;;26.66;36.69;99386.13;5018084;28;20406;-62
2022/05/06 10:22:09;;;;;;;3.00;1.98;;;;;;;26.09;37.22;99382.25;5017817;28;20116;-62
2022/05/06 10:24:50;;;;;;;5.15;1.92;;;;;;;24.68;38.15;99372.59;5017025;28;20675;-63
2022/05/06 10:32:25;;;;;;;5.35;2.40;;;;;;;23.59;40.88;99367.47;5006773;28;20036;-65
2022/05/06 10:33:17;;;;;;;3.55;1.90;;;;;;;26.12;37.67;99378.06;5010353;28;20056;-64
2022/05/06 10:35:44;;;;;;;6.13;2.00;;;;;;;27.44;35.29;99367.34;5009857;28;20033;-65
2022/05/06 10:38:22;;;;;;;4.10;2.50;;;;;;;27.05;33.74;99371.19;5008794;28;20117;-64
2022/05/06 10:40:58;;;;;;;3.55;2.45;;;;;;;27.24;34.94;99370.41;5007319;28;20103;-65
2022/05/06 10:43:41;;;;;;;6.07;1.90;;;;;;;27.53;35.31;99367.47;5012933;28;20053;-66
2022/05/06 10:46:07;;;;;;;3.42;2.00;;;;;;;27.32;34.71;99364.19;5006468;28;20026;-62
2022/05/06 10:48:33;;;;;;;4.38;2.33;;;;;;;27.40;34.89;99365.47;5009048;28;20457;-62
2022/05/06 10:51:21;;;;;;;2.63;2.00;;;;;;;27.29;34.64;99359.22;5017000;28;20142;-63
2022/05/06 10:53:47;;;;;;;5.30;2.20;;;;;;;26.33;35.26;99351.81;5010699;28;20025;-62
2022/05/06 10:56:12;;;;;;;4.38;2.13;;;;;;;27.49;35.05;99349.78;5015159;28;20038;-62
2022/05/06 10:58:38;;;;;;;6.70;2.30;;;;;;;27.19;34.39;99360.19;5010095;28;20107;-66
2022/05/06 11:01:03;;;;;;;4.35;2.38;;;;;;;27.79;33.85;99355.94;5010289;28;20391;-72
2022/05/06 11:03:28;;;;;;;3.05;1.83;;;;;;;28.71;32.73;99343.16;5016969;28;20036;-73
2022/05/06 11:05:53;;;;;;;3.47;1.63;;;;;;;29.28;32.11;99358.34;5016919;28;20563;-73
2022/05/06 11:08:21;;;;;;;4.00;2.20;;;;;;;28.41;30.61;99353.75;5011449;28;20030;-71
2022/05/06 11:10:46;;;;;;;5.20;2.15;;;;;;;28.14;32.78;99352.59;5009308;28;20119;-71
2022/05/06 11:13:12;;;;;;;7.75;1.77;;;;;;;27.25;33.48;99347.91;5007710;28;20069;-71
2022/05/06 11:15:37;;;;;;;10.68;2.45;;;;;;;26.31;36.01;99344.91;5015984;28;20029;-70
2022/05/06 11:18:05;;;;;;;4.53;2.10;;;;;;;25.84;35.92;99363.06;5009472;28;20095;-70
2022/05/06 11:20:37;;;;;;;4.20;2.20;;;;;;;24.97;37.79;99361.69;5011224;28;20025;-71
2022/05/06 11:23:03;;;;;;;4.40;2.10;;;;;;;25.07;37.58;99369.94;5010443;28;20036;-71
2022/05/06 11:25:37;;;;;;;3.17;2.20;;;;;;;24.81;37.62;99355.41;5025263;28;22455;-70
2022/05/06 11:28:08;;;;;;;3.22;2.30;;;;;;;24.89;36.60;99356.75;5007109;28;20026;-71
2022/05/06 11:30:34;;;;;;;6.13;2.60;;;;;;;24.77;36.72;99347.94;5013713;28;20017;-67
2022/05/06 11:33:02;;;;;;;4.68;2.40;;;;;;;25.71;35.70;99357.06;5012174;28;20475;-69
2022/05/06 11:35:32;;;;;;;3.25;1.90;;;;;;;25.73;37.05;99335.44;5000745;28;20164;-69
2022/05/06 11:37:58;;;;;;;3.42;1.75;;;;;;;25.56;37.27;99346.91;5011414;28;20056;-70
2022/05/06 11:40:35;;;;;;;4.80;2.08;;;;;;;26.33;35.35;99342.63;5007754;28;20752;-69
2022/05/06 11:43:23;;;;;;;4.45;2.05;;;;;;;26.96;35.40;99349.94;5009370;28;20045;-68
2022/05/06 11:48:43;;;;;;;3.58;2.35;;;;;;;24.60;38.36;99348.28;5010193;28;20123;-68
2022/05/06 11:51:11;;;;;;;4.65;2.35;;;;;;;24.15;40.33;99347.28;5012495;28;20030;-77
2022/05/06 11:53:39;;;;;;;4.00;2.50;;;;;;;23.96;39.45;99338.75;5016345;28;20018;-76
2022/05/06 11:56:05;;;;;;;4.72;2.10;;;;;;;24.34;38.80;99345.59;5012517;28;20018;-77
2022/05/06 11:58:33;;;;;;;5.07;1.60;;;;;;;25.60;38.12;99336.09;5033508;28;20021;-77
2022/05/06 12:00:59;;;;;;;3.08;1.90;;;;;;;27.28;36.40;99338.97;5019139;28;20491;-77
2022/05/06 12:03:26;;;;;;;6.63;2.80;;;;;;;27.81;32.84;99320.38;5031417;28;20064;-76
2022/05/06 12:06:24;;;;;;;4.40;2.28;;;;;;;27.30;34.32;99356.16;5014249;28;20141;-76